Alsen, North Dakota
Current Conditions -  °F | °C
As of 7:35 AM on Sunday 21 Dec 2014 (Local Time) from KD55 Reporting Station
Moderate Fog Moderate Fog  
Wind Chill: 17°   Ceiling: 100
Heat Index: 23°   Visibility: 0.5mi
Dew Point: 19°   Wind: 5mph
Humidity: 86%   Direction: 360°N
Pressure: 29.61"   Gusts: NA
Location:  48.63°N, 98.7°W
Report Text: KD55 211335Z AUTO 36004KT 1/2SM FZFG OVC001 M05/M07 A2961 RMK AO2
Loading
Personal Weather Stations






























Interactive Weather Map New forecast layout! Learn more

10-Day Weather Forecast

Advertisements
Track Severe Weather on mobile